createdAt,value
2018-02-10T00:01:24.519Z,84.90
2018-02-10T00:03:52.847Z,85.50
2018-02-10T00:06:22.044Z,86.20
2018-02-10T00:08:50.343Z,86.30
2018-02-10T00:11:19.419Z,87.20
2018-02-10T00:13:47.776Z,87.20
2018-02-10T00:16:16.068Z,88.70
2018-02-10T00:18:44.516Z,88.00
2018-02-10T00:21:12.829Z,88.90
2018-02-10T00:23:41.895Z,87.90
2018-02-10T00:26:10.328Z,88.00
2018-02-10T00:28:38.648Z,88.70
2018-02-10T00:31:06.948Z,89.70
2018-02-10T00:33:35.276Z,90.40
2018-02-10T00:36:03.576Z,88.30
2018-02-10T00:38:32.673Z,87.30
2018-02-10T00:41:00.970Z,87.30
2018-02-10T00:43:29.316Z,87.00
2018-02-10T00:45:57.628Z,87.40
2018-02-10T00:48:25.923Z,88.00
2018-02-10T00:50:55.109Z,88.60
2018-02-10T00:53:23.396Z,89.20
2018-02-10T00:55:51.737Z,89.60
2018-02-10T00:58:20.813Z,90.00
2018-02-10T01:00:49.152Z,90.00
2018-02-10T01:03:17.473Z,90.40
2018-02-10T01:05:45.776Z,90.40
2018-02-10T01:08:14.373Z,90.50
2018-02-10T01:10:42.680Z,90.70
2018-02-10T01:13:11.015Z,90.70
2018-02-10T01:15:40.132Z,90.20
2018-02-10T01:18:08.475Z,90.30
2018-02-10T01:20:37.081Z,90.40
2018-02-10T01:23:06.147Z,90.10
2018-02-10T01:25:34.471Z,90.10
2018-02-10T01:28:02.815Z,90.00
2018-02-10T01:30:31.135Z,90.10
2018-02-10T01:32:59.472Z,90.00
2018-02-10T01:35:27.779Z,90.00
2018-02-10T01:37:56.116Z,89.90
2018-02-10T01:40:24.421Z,90.20
2018-02-10T01:42:53.740Z,89.50
2018-02-10T01:45:22.801Z,89.60
2018-02-10T01:47:51.115Z,89.70
2018-02-10T01:50:22.291Z,90.00
2018-02-10T01:52:51.363Z,90.60
2018-02-10T01:55:19.716Z,90.60
2018-02-10T01:57:48.796Z,90.70
2018-02-10T02:00:17.888Z,90.90
2018-02-10T02:02:46.212Z,91.00
2018-02-10T02:05:14.550Z,91.20
2018-02-10T02:07:43.166Z,91.40
2018-02-10T02:10:11.468Z,90.70
2018-02-10T02:12:39.772Z,90.80
2018-02-10T02:15:08.867Z,91.30
2018-02-10T02:17:37.966Z,91.60
2018-02-10T02:20:06.280Z,90.90
2018-02-10T02:22:35.341Z,91.60
2018-02-10T02:25:03.663Z,91.70
2018-02-10T02:27:32.729Z,88.80
2018-02-10T02:30:01.308Z,88.80
2018-02-10T02:32:29.605Z,89.20
2018-02-10T02:34:57.957Z,89.70
2018-02-10T02:37:27.069Z,90.30
2018-02-10T02:39:56.124Z,90.30
2018-02-10T02:42:24.429Z,90.30
2018-02-10T02:44:52.752Z,90.40
2018-02-10T02:47:21.813Z,90.70
2018-02-10T02:49:50.153Z,90.70
2018-02-10T02:52:18.482Z,90.70
2018-02-10T02:54:46.788Z,90.60
2018-02-10T02:57:15.113Z,89.60
2018-02-10T02:59:44.188Z,90.00
2018-02-10T03:02:12.517Z,90.00
2018-02-10T03:04:41.600Z,89.80
2018-02-10T03:07:09.988Z,89.80
2018-02-10T03:09:38.308Z,90.00
2018-02-10T03:12:07.416Z,90.30
2018-02-10T03:14:36.488Z,91.10
2018-02-10T03:17:04.785Z,91.20
2018-02-10T03:19:33.435Z,87.80
2018-02-10T03:22:01.737Z,87.70
2018-02-10T03:24:30.065Z,88.40
2018-02-10T03:26:58.384Z,86.30
2018-02-10T03:29:27.482Z,86.20
2018-02-10T03:31:55.773Z,86.10
2018-02-10T03:34:24.860Z,83.20
2018-02-10T03:36:53.200Z,83.20
2018-02-10T03:39:22.289Z,83.50
2018-02-10T03:41:51.373Z,83.20
2018-02-10T03:44:19.756Z,83.20
2018-02-10T03:46:48.095Z,83.80
2018-02-10T03:49:16.417Z,84.50
2018-02-10T03:51:44.709Z,85.70
2018-02-10T03:54:13.042Z,84.00
2018-02-10T03:56:42.091Z,83.60
2018-02-10T03:59:10.429Z,83.60
2018-02-10T04:01:39.509Z,85.50
2018-02-10T04:04:07.819Z,85.50
2018-02-10T04:06:36.161Z,86.20
2018-02-10T04:09:04.456Z,86.80
2018-02-10T04:11:32.756Z,87.70
2018-02-10T04:14:01.156Z,85.30
2018-02-10T04:16:29.551Z,84.40
2018-02-10T04:18:57.855Z,85.00
2018-02-10T04:21:26.198Z,85.90
2018-02-10T04:23:54.496Z,85.30
2018-02-10T04:26:22.824Z,85.70
2018-02-10T04:28:51.120Z,86.40
2018-02-10T04:31:19.452Z,87.00
2018-02-10T04:33:47.759Z,87.50
2018-02-10T04:36:16.095Z,88.00
2018-02-10T04:38:44.384Z,85.40
2018-02-10T04:41:12.685Z,83.80
2018-02-10T04:43:41.057Z,83.40
2018-02-10T04:46:09.372Z,83.60
2018-02-10T04:48:37.699Z,83.10
2018-02-10T04:51:06.008Z,82.90
2018-02-10T04:53:34.355Z,83.30
2018-02-10T04:56:03.429Z,85.10
2018-02-10T04:58:31.797Z,85.10
2018-02-10T05:01:00.098Z,86.30
2018-02-10T05:03:28.432Z,86.70
2018-02-10T05:05:57.510Z,86.50
2018-02-10T05:08:25.840Z,86.60
2018-02-10T05:10:54.176Z,85.00
2018-02-10T05:13:22.541Z,84.90
2018-02-10T05:15:50.846Z,85.00
2018-02-10T05:18:19.165Z,84.80
2018-02-10T05:20:47.495Z,85.70
2018-02-10T05:23:15.841Z,86.30
2018-02-10T05:25:44.155Z,86.30
2018-02-10T05:28:13.251Z,84.70
2018-02-10T05:30:41.548Z,84.70
2018-02-10T05:33:09.881Z,84.00
2018-02-10T05:35:38.194Z,85.30
2018-02-10T05:38:06.495Z,85.90
2018-02-10T05:40:34.868Z,85.70
2018-02-10T05:43:03.164Z,86.10
2018-02-10T05:45:31.500Z,83.80
2018-02-10T05:48:00.562Z,82.70
2018-02-10T05:50:28.889Z,82.70
2018-02-10T05:52:57.201Z,82.80
2018-02-10T05:55:25.525Z,81.80
2018-02-10T05:57:53.818Z,82.40
2018-02-10T06:00:22.173Z,82.00
2018-02-10T06:02:50.485Z,81.80
2018-02-10T06:05:18.855Z,82.30
2018-02-10T06:07:47.152Z,83.20
2018-02-10T06:10:15.499Z,83.50
2018-02-10T06:12:43.796Z,84.50
2018-02-10T06:15:12.129Z,84.60
2018-02-10T06:17:40.465Z,85.10
2018-02-10T06:20:08.800Z,84.60
2018-02-10T06:22:37.412Z,85.00
2018-02-10T06:25:05.758Z,84.10
2018-02-10T06:27:34.836Z,84.40
2018-02-10T06:30:03.189Z,84.00
2018-02-10T06:32:31.518Z,83.80
2018-02-10T06:35:00.103Z,84.20
2018-02-10T06:37:28.399Z,84.70
2018-02-10T06:39:56.749Z,85.10
2018-02-10T06:42:25.044Z,85.90
2018-02-10T06:44:53.379Z,85.90
2018-02-10T06:47:21.680Z,85.90
2018-02-10T06:49:50.010Z,84.30
2018-02-10T06:52:18.435Z,84.20
2018-02-10T06:54:46.769Z,83.90
2018-02-10T06:57:15.840Z,85.00
2018-02-10T06:59:44.160Z,84.20
2018-02-10T07:02:12.472Z,85.00
2018-02-10T07:04:41.582Z,83.60
2018-02-10T07:07:10.741Z,84.60
2018-02-10T07:09:39.039Z,84.60
2018-02-10T07:12:07.364Z,84.00
2018-02-10T07:14:36.439Z,83.40
2018-02-10T07:17:04.776Z,83.40
2018-02-10T07:19:33.078Z,81.80
2018-02-10T07:22:01.414Z,81.20
2018-02-10T07:24:29.796Z,82.60
2018-02-10T07:26:58.126Z,84.00
2018-02-10T07:29:26.436Z,83.40
2018-02-10T07:31:54.784Z,83.60
2018-02-10T07:34:23.183Z,83.10
2018-02-10T07:36:52.288Z,82.20
2018-02-10T07:39:20.585Z,82.20
2018-02-10T07:41:49.724Z,82.60
2018-02-10T07:44:18.019Z,82.60
2018-02-10T07:46:46.383Z,82.20
2018-02-10T07:49:15.453Z,82.30
2018-02-10T07:51:43.784Z,82.30
2018-02-10T07:54:12.848Z,82.30
2018-02-10T07:56:41.149Z,82.40
2018-02-10T07:59:09.475Z,81.20
2018-02-10T08:01:38.539Z,81.40
2018-02-10T08:04:06.900Z,81.40
2018-02-10T08:06:35.305Z,81.60
2018-02-10T08:09:03.658Z,80.90
2018-02-10T08:11:32.000Z,80.40
2018-02-10T08:14:00.357Z,81.00
2018-02-10T08:16:28.668Z,81.00
2018-02-10T08:18:56.999Z,80.30
2018-02-10T08:21:25.302Z,79.80
2018-02-10T08:23:54.402Z,78.20
2018-02-10T08:26:22.721Z,79.00
2018-02-10T08:28:51.077Z,77.90
2018-02-10T08:31:19.386Z,77.10
2018-02-10T08:33:48.485Z,77.00
2018-02-10T08:36:17.562Z,76.70
2018-02-10T08:38:45.908Z,76.70
2018-02-10T08:41:14.232Z,76.00
2018-02-10T08:43:42.574Z,76.30
2018-02-10T08:46:10.884Z,76.50
2018-02-10T08:48:39.311Z,76.20
2018-02-10T08:51:07.618Z,76.50
2018-02-10T08:53:35.943Z,75.60
2018-02-10T08:56:05.043Z,75.50
2018-02-10T08:58:34.120Z,75.30
2018-02-10T09:01:02.479Z,75.20
2018-02-10T09:03:30.823Z,75.10
2018-02-10T09:05:59.942Z,75.20
2018-02-10T09:08:29.016Z,74.70
2018-02-10T09:10:57.409Z,74.70
2018-02-10T09:13:25.713Z,75.10
2018-02-10T09:15:54.111Z,74.00
2018-02-10T09:18:23.191Z,73.40
2018-02-10T09:20:51.489Z,73.40
2018-02-10T09:23:19.822Z,73.70
2018-02-10T09:25:48.132Z,73.50
2018-02-10T09:28:16.464Z,72.80
2018-02-10T09:30:44.771Z,72.00
2018-02-10T09:33:13.916Z,72.50
2018-02-10T09:35:42.222Z,72.10
2018-02-10T09:38:10.549Z,71.00
2018-02-10T09:40:38.951Z,71.30
2018-02-10T09:43:08.050Z,70.90
2018-02-10T09:45:36.367Z,70.90
2018-02-10T09:48:05.427Z,70.70
2018-02-10T09:50:33.799Z,70.70
2018-02-10T09:53:02.154Z,70.10
2018-02-10T09:55:30.495Z,70.20
2018-02-10T09:57:58.863Z,70.10
2018-02-10T10:00:27.156Z,70.10
2018-02-10T10:02:55.492Z,72.20
2018-02-10T10:05:23.811Z,69.60
2018-02-10T10:07:52.877Z,69.20
2018-02-10T10:10:21.241Z,69.20
2018-02-10T10:12:49.533Z,69.10
2018-02-10T10:15:17.870Z,70.00
2018-02-10T10:17:46.972Z,68.60
2018-02-10T10:20:16.056Z,69.60
2018-02-10T10:22:44.383Z,69.60
2018-02-10T10:25:13.488Z,69.70
2018-02-10T10:27:41.815Z,69.60
2018-02-10T10:30:10.188Z,69.30
2018-02-10T10:32:38.546Z,69.30
2018-02-10T10:35:07.655Z,69.70
2018-02-10T10:37:36.041Z,69.70
2018-02-10T10:40:04.374Z,69.10
2018-02-10T10:42:32.674Z,69.10
2018-02-10T10:45:01.246Z,69.40
2018-02-10T10:47:32.708Z,69.30
2018-02-10T10:50:01.176Z,68.80
2018-02-10T10:52:29.578Z,69.50
2018-02-10T10:54:59.194Z,69.10
2018-02-10T10:57:28.523Z,69.20
2018-02-10T10:59:56.815Z,69.50
2018-02-10T11:02:26.167Z,69.30
2018-02-10T11:04:55.391Z,69.60
2018-02-10T11:07:23.812Z,68.70
2018-02-10T11:09:52.140Z,69.00
2018-02-10T11:12:20.576Z,69.00
2018-02-10T11:14:48.893Z,68.90
2018-02-10T11:17:17.285Z,68.70
2018-02-10T11:19:45.676Z,69.50
2018-02-10T11:22:14.311Z,69.70
2018-02-10T11:24:42.672Z,68.70
2018-02-10T11:27:13.141Z,68.40
2018-02-10T11:29:42.251Z,69.50
2018-02-10T11:32:10.671Z,70.10
2018-02-10T11:34:39.000Z,68.30
2018-02-10T11:37:07.350Z,68.30
2018-02-10T11:39:35.924Z,68.70
2018-02-10T11:42:05.973Z,68.90
2018-02-10T11:44:34.306Z,69.20
2018-02-10T11:47:02.770Z,69.30
2018-02-10T11:49:31.136Z,68.50
2018-02-10T11:52:10.342Z,68.70
2018-02-10T11:54:38.663Z,68.70
2018-02-10T11:57:07.730Z,68.70
2018-02-10T11:59:36.714Z,68.60
2018-02-10T12:02:09.511Z,68.50
2018-02-10T12:04:37.961Z,69.10
2018-02-10T12:07:06.418Z,68.90
2018-02-10T12:09:34.961Z,68.20
2018-02-10T12:12:03.273Z,67.80
2018-02-10T12:14:31.594Z,68.40
2018-02-10T12:16:59.926Z,68.40
2018-02-10T12:19:28.440Z,69.20
2018-02-10T12:21:56.766Z,69.30
2018-02-10T12:24:25.057Z,69.60
2018-02-10T12:26:53.403Z,68.70
2018-02-10T12:29:21.684Z,68.60
2018-02-10T12:31:50.079Z,68.70
2018-02-10T12:34:33.709Z,68.30
2018-02-10T12:37:02.824Z,69.20
2018-02-10T12:39:31.114Z,69.20
2018-02-10T12:41:59.448Z,69.20
2018-02-10T12:44:27.769Z,69.10
2018-02-10T12:46:56.145Z,68.60
2018-02-10T12:49:29.832Z,70.00
2018-02-10T12:51:58.190Z,70.30
2018-02-10T12:54:26.510Z,69.20
2018-02-10T12:56:54.848Z,68.90
2018-02-10T12:59:23.143Z,68.50
2018-02-10T13:01:51.507Z,68.70
2018-02-10T13:04:21.769Z,68.90
2018-02-10T13:06:50.881Z,68.90
2018-02-10T13:09:20.144Z,69.30
2018-02-10T13:11:48.491Z,68.90
2018-02-10T13:14:16.835Z,69.50
2018-02-10T13:16:45.136Z,69.40
2018-02-10T13:19:13.482Z,69.30
2018-02-10T13:21:41.874Z,69.10
2018-02-10T13:24:10.261Z,67.80
2018-02-10T13:26:38.684Z,67.00
2018-02-10T13:29:07.183Z,66.30
2018-02-10T13:31:35.515Z,66.80
2018-02-10T13:34:05.843Z,66.10
2018-02-10T13:36:34.970Z,65.90
2018-02-10T13:39:03.357Z,65.90
2018-02-10T13:41:32.584Z,66.10
2018-02-10T13:44:00.920Z,64.90
2018-02-10T13:46:29.250Z,65.00
2018-02-10T13:48:57.658Z,63.80
2018-02-10T13:51:25.994Z,64.30
2018-02-10T13:54:07.059Z,63.50
2018-02-10T13:56:35.439Z,63.80
2018-02-10T13:59:03.781Z,63.90
2018-02-10T14:01:32.077Z,61.90
2018-02-10T14:04:00.400Z,62.30
2018-02-10T14:06:29.718Z,62.50
2018-02-10T14:08:58.092Z,62.10
2018-02-10T14:11:26.776Z,62.60
2018-02-10T14:13:58.191Z,61.60
2018-02-10T14:16:26.512Z,62.40
2018-02-10T14:18:55.608Z,62.30
2018-02-10T14:21:25.325Z,62.40
2018-02-10T14:23:53.691Z,62.00
2018-02-10T14:26:22.088Z,60.90
2018-02-10T14:28:50.436Z,60.00
2018-02-10T14:31:18.842Z,60.20
2018-02-10T14:33:47.242Z,60.70
2018-02-10T14:36:23.673Z,60.60
2018-02-10T14:38:52.027Z,60.70
2018-02-10T14:41:20.315Z,60.80
2018-02-10T14:43:48.664Z,60.30
2018-02-10T14:46:16.982Z,59.90
2018-02-10T14:48:45.382Z,61.10
2018-02-10T14:51:13.769Z,60.90
2018-02-10T14:53:44.116Z,60.90
2018-02-10T14:56:12.523Z,60.30
2018-02-10T14:58:40.885Z,61.10
2018-02-10T15:01:09.223Z,62.70
2018-02-10T15:03:37.591Z,61.80
2018-02-10T15:06:05.908Z,61.90
2018-02-10T15:08:36.731Z,62.20
2018-02-10T15:11:05.898Z,62.40
2018-02-10T15:13:34.323Z,62.50
2018-02-10T15:16:03.144Z,63.10
2018-02-10T15:18:32.560Z,62.70
2018-02-10T15:21:00.879Z,62.70
2018-02-10T15:23:29.211Z,62.40
2018-02-10T15:25:57.611Z,62.80
2018-02-10T15:28:26.049Z,62.80
2018-02-10T15:31:12.155Z,63.30
2018-02-10T16:30:39.922Z,66.60
2018-02-10T16:33:08.210Z,66.80
2018-02-10T16:35:39.296Z,66.10
2018-02-10T16:38:08.465Z,66.10
2018-02-10T16:40:37.613Z,65.30
2018-02-10T16:43:06.223Z,65.70
2018-02-10T16:45:34.598Z,66.00
2018-02-10T16:48:08.456Z,66.00
2018-02-10T16:50:36.758Z,66.40
2018-02-10T16:53:05.060Z,66.80
2018-02-10T16:55:33.412Z,66.50
2018-02-10T16:58:14.519Z,66.60
2018-02-10T17:00:42.827Z,66.70
2018-02-10T17:03:13.936Z,66.50
2018-02-10T17:05:42.423Z,66.80
2018-02-10T17:08:11.100Z,67.50
2018-02-10T17:10:39.386Z,67.30
2018-02-10T17:13:14.089Z,67.30
2018-02-10T17:15:42.387Z,67.70
2018-02-10T17:18:10.818Z,67.60
2018-02-10T17:21:12.822Z,67.50
2018-02-10T17:23:43.968Z,68.50
2018-02-10T17:26:15.749Z,68.00
2018-02-10T17:28:44.104Z,68.60
2018-02-10T17:31:12.423Z,69.30
2018-02-10T17:33:40.780Z,69.00
2018-02-10T17:36:10.038Z,68.70
2018-02-10T17:38:38.852Z,68.70
2018-02-10T17:41:07.268Z,69.60
2018-02-10T17:43:35.614Z,69.60
2018-02-10T17:46:03.966Z,68.90
2018-02-10T17:48:32.265Z,69.00
2018-02-10T17:51:00.603Z,69.70
2018-02-10T17:53:44.146Z,70.00
2018-02-10T17:56:12.474Z,70.20
2018-02-10T17:58:40.787Z,70.40
2018-02-10T18:01:09.118Z,70.40
2018-02-10T18:03:37.587Z,70.70
2018-02-10T18:06:05.920Z,70.50
2018-02-10T18:08:34.302Z,70.70
2018-02-10T18:11:02.662Z,71.20
2018-02-10T18:13:30.943Z,71.80
2018-02-10T18:15:59.258Z,71.40
2018-02-10T18:18:27.557Z,71.90
2018-02-10T18:27:30.085Z,72.40
2018-02-10T18:30:04.111Z,72.10
2018-02-10T18:32:32.523Z,72.10
2018-02-10T18:35:01.831Z,73.00
2018-02-10T18:37:31.142Z,72.70
2018-02-10T18:39:59.478Z,73.40
2018-02-10T18:42:29.562Z,73.10
2018-02-10T18:44:58.226Z,73.20
2018-02-10T18:47:27.709Z,73.40
2018-02-10T18:49:56.119Z,73.50
2018-02-10T18:52:43.805Z,74.00
2018-02-10T18:55:12.123Z,74.00
2018-02-10T18:57:40.590Z,73.90
2018-02-10T19:00:08.906Z,73.80
2018-02-10T19:02:42.153Z,73.60
2018-02-10T19:05:15.868Z,73.40
2018-02-10T19:23:24.045Z,73.80
2018-02-10T19:26:04.404Z,75.40
2018-02-10T19:28:32.789Z,74.70
2018-02-10T19:31:01.201Z,74.60
2018-02-10T19:33:29.571Z,75.20
2018-02-10T19:35:57.924Z,75.20
2018-02-10T19:38:26.256Z,75.00
2018-02-10T19:40:54.682Z,75.00
2018-02-10T19:43:22.987Z,75.10
2018-02-10T19:45:51.298Z,75.20
2018-02-10T19:48:19.619Z,74.90
2018-02-10T19:50:50.928Z,74.80
2018-02-10T19:53:20.334Z,75.30
2018-02-10T19:55:48.818Z,75.90
2018-02-10T19:58:17.190Z,75.70
2018-02-10T20:00:45.645Z,75.70
2018-02-10T20:03:14.178Z,75.70
2018-02-10T20:05:42.522Z,76.00
2018-02-10T20:08:10.849Z,76.30
2018-02-10T20:10:39.553Z,76.40
2018-02-10T20:13:08.032Z,76.40
2018-02-10T20:15:36.417Z,75.70
2018-02-10T20:18:04.742Z,76.10
2018-02-10T20:20:33.202Z,76.60
2018-02-10T20:23:01.535Z,76.60
2018-02-10T20:25:29.905Z,76.90
2018-02-10T20:27:58.311Z,77.30
2018-02-10T20:30:26.736Z,77.30
2018-02-10T20:32:57.182Z,77.60
2018-02-10T20:35:25.552Z,76.90
2018-02-10T20:37:53.902Z,77.30
2018-02-10T20:40:36.373Z,77.30
2018-02-10T20:43:04.734Z,77.30
2018-02-10T20:45:35.240Z,77.90
2018-02-10T20:48:09.175Z,77.10
2018-02-10T20:50:44.443Z,77.40
2018-02-10T20:53:13.087Z,77.60
2018-02-10T20:55:41.563Z,77.40
2018-02-10T20:58:09.922Z,77.40
2018-02-10T21:00:38.254Z,77.80
2018-02-10T21:03:06.734Z,78.10
2018-02-10T21:05:35.036Z,78.90
2018-02-10T21:08:03.422Z,78.10
2018-02-10T21:10:31.780Z,78.80
2018-02-10T21:13:00.180Z,78.60
2018-02-10T21:15:28.502Z,78.90
2018-02-10T21:17:56.842Z,78.50
2018-02-10T21:20:25.138Z,78.10
2018-02-10T21:22:53.887Z,78.30
2018-02-10T21:25:22.207Z,78.40
2018-02-10T21:27:50.604Z,78.10
2018-02-10T21:30:18.952Z,77.80
2018-02-10T21:32:47.244Z,78.20
2018-02-10T21:35:15.629Z,77.90
2018-02-10T21:37:44.897Z,77.80
2018-02-10T21:40:13.253Z,77.90
2018-02-10T21:42:41.618Z,77.90
2018-02-10T21:45:09.938Z,78.10
2018-02-10T21:47:38.292Z,77.60
2018-02-10T21:50:06.632Z,77.70
2018-02-10T21:52:34.968Z,77.10
2018-02-10T21:55:03.300Z,77.20
2018-02-10T21:57:31.705Z,75.90
2018-02-10T22:00:00.105Z,75.50
2018-02-10T22:02:28.459Z,75.30
2018-02-10T22:04:56.881Z,75.70
2018-02-10T22:07:25.303Z,75.20
2018-02-10T22:09:53.655Z,75.20
2018-02-10T22:12:22.112Z,74.70
2018-02-10T22:14:51.387Z,74.80
2018-02-10T22:17:20.664Z,75.00
2018-02-10T22:19:48.969Z,74.60
2018-02-10T22:22:17.337Z,75.40
2018-02-10T22:24:45.736Z,75.40
2018-02-10T22:27:14.136Z,75.00
2018-02-10T22:29:42.559Z,74.50
2018-02-10T22:32:10.930Z,73.90
2018-02-10T22:34:40.182Z,73.30
2018-02-10T22:37:08.479Z,73.50
2018-02-10T22:39:36.924Z,73.20
2018-02-10T22:42:06.104Z,73.70
2018-02-10T22:44:34.420Z,73.70
2018-02-10T22:47:02.872Z,74.50
2018-02-10T22:49:32.279Z,74.80
2018-02-10T22:52:00.840Z,74.50
2018-02-10T22:54:30.156Z,75.20
2018-02-10T22:56:58.540Z,75.40
2018-02-10T22:59:26.866Z,74.90
2018-02-10T23:01:55.197Z,75.40
2018-02-10T23:04:23.614Z,75.50
2018-02-10T23:06:52.019Z,75.40
2018-02-10T23:09:20.303Z,74.70
2018-02-10T23:11:48.794Z,74.40
2018-02-10T23:14:17.265Z,74.00
2018-02-10T23:16:45.626Z,75.00
2018-02-10T23:19:14.031Z,74.70
2018-02-10T23:21:42.504Z,73.90
2018-02-10T23:24:10.813Z,74.30
2018-02-10T23:26:39.119Z,74.20
2018-02-10T23:29:07.563Z,74.00
2018-02-10T23:31:36.024Z,73.90
2018-02-10T23:34:04.362Z,74.40
2018-02-10T23:36:32.754Z,73.50
2018-02-10T23:39:01.160Z,73.20
2018-02-10T23:41:29.540Z,73.10
2018-02-10T23:43:58.896Z,73.00
2018-02-10T23:46:27.213Z,72.90
2018-02-10T23:48:55.530Z,73.20
2018-02-10T23:51:23.850Z,73.20
2018-02-10T23:53:52.183Z,72.80
2018-02-10T23:56:20.678Z,72.00
2018-02-10T23:58:49.099Z,72.50
